createdAt,value
2023-03-02T00:00:16.868Z,101514.31
2023-03-02T00:03:18.447Z,101513.63
2023-03-02T00:06:20.139Z,101510.91
2023-03-02T00:09:21.680Z,101514.47
2023-03-02T00:12:23.677Z,101516.31
2023-03-02T00:15:25.258Z,101526.16
2023-03-02T00:18:26.708Z,101536.16
2023-03-02T00:21:28.273Z,101526.28
2023-03-02T00:24:29.719Z,101530.75
2023-03-02T00:27:31.258Z,101529.00
2023-03-02T00:30:32.783Z,101532.72
2023-03-02T00:33:34.647Z,101535.53
2023-03-02T00:36:36.233Z,101533.84
2023-03-02T00:39:37.748Z,101535.69
2023-03-02T00:42:39.355Z,101540.09
2023-03-02T00:45:41.218Z,101539.25
2023-03-02T00:48:43.451Z,101532.13
2023-03-02T00:51:44.916Z,101534.69
2023-03-02T00:54:46.383Z,101539.25
2023-03-02T00:57:54.916Z,101534.69
2023-03-02T01:01:06.561Z,101537.41
2023-03-02T01:04:09.675Z,101533.94
2023-03-02T01:07:14.767Z,101525.09
2023-03-02T01:10:17.082Z,101526.06
2023-03-02T01:13:19.605Z,101524.22
2023-03-02T01:16:21.240Z,101524.38
2023-03-02T01:19:22.878Z,101524.38
2023-03-02T01:22:24.390Z,101525.34
2023-03-02T01:25:25.884Z,101523.53
2023-03-02T01:28:27.707Z,101521.66
2023-03-02T01:31:30.291Z,101508.09
2023-03-02T01:34:32.055Z,101516.25
2023-03-02T01:37:34.186Z,101508.22
2023-03-02T01:40:35.716Z,101499.25
2023-03-02T01:43:37.718Z,101504.66
2023-03-02T01:46:39.265Z,101495.66
2023-03-02T01:49:49.669Z,101497.38
2023-03-02T01:52:52.729Z,101482.13
2023-03-02T01:55:54.796Z,101482.13
2023-03-02T01:59:05.761Z,101481.13
2023-03-02T02:02:10.660Z,101470.28
2023-03-02T02:05:17.513Z,101472.97
2023-03-02T02:08:19.258Z,101464.00
2023-03-02T02:11:20.898Z,101472.25
2023-03-02T02:14:25.600Z,101478.56
2023-03-02T02:17:31.185Z,101469.53
2023-03-02T02:20:37.275Z,101464.13
2023-03-02T02:24:11.096Z,101472.13
2023-03-02T02:27:13.675Z,101463.16
2023-03-02T02:30:16.806Z,101465.84
2023-03-02T02:33:23.257Z,101468.56
2023-03-02T02:36:34.768Z,101463.41
2023-03-02T02:39:45.179Z,101458.00
2023-03-02T02:42:49.013Z,101460.69
2023-03-02T02:45:54.999Z,101451.69
2023-03-02T02:48:56.647Z,101459.81
2023-03-02T02:52:00.056Z,101463.41
2023-03-02T02:55:02.691Z,101461.56
2023-03-02T02:58:13.632Z,101464.25
2023-03-02T03:01:18.370Z,101464.38
2023-03-02T03:04:28.028Z,101468.09
2023-03-02T03:07:31.803Z,101465.50
2023-03-02T03:10:40.234Z,101459.09
2023-03-02T03:13:44.382Z,101460.81
2023-03-02T03:16:48.240Z,101459.81
2023-03-02T03:19:49.788Z,101450.09
2023-03-02T03:22:53.432Z,101450.97
2023-03-02T03:25:55.717Z,101451.84
2023-03-02T03:28:57.422Z,101451.94
2023-03-02T03:32:00.646Z,101447.53
2023-03-02T03:35:03.798Z,101451.09
2023-03-02T03:38:08.304Z,101436.69
2023-03-02T03:41:09.862Z,101442.97
2023-03-02T03:44:11.513Z,101445.69
2023-03-02T03:47:15.774Z,101449.38
2023-03-02T03:50:17.897Z,101446.53
2023-03-02T03:53:19.497Z,101450.25
2023-03-02T03:56:21.210Z,101451.22
2023-03-02T03:59:25.412Z,101452.22
2023-03-02T04:02:31.783Z,101459.50
2023-03-02T04:05:34.193Z,101464.75
2023-03-02T04:08:37.380Z,101457.63
2023-03-02T04:11:41.080Z,101461.09
2023-03-02T04:14:42.605Z,101466.50
2023-03-02T04:17:44.956Z,101469.06
2023-03-02T04:20:47.854Z,101477.09
2023-03-02T04:23:49.468Z,101471.66
2023-03-02T04:26:51.817Z,101469.69
2023-03-02T04:29:54.004Z,101464.13
2023-03-02T04:32:57.513Z,101468.56
2023-03-02T04:36:01.077Z,101470.28
2023-03-02T04:39:04.482Z,101464.59
2023-03-02T04:42:06.049Z,101470.88
2023-03-02T04:45:08.047Z,101471.75
2023-03-02T04:48:09.564Z,101474.44
2023-03-02T04:51:18.711Z,101477.91
2023-03-02T04:54:25.300Z,101475.19
2023-03-02T04:57:26.798Z,101478.75
2023-03-02T05:00:28.859Z,101475.19
2023-03-02T05:03:30.458Z,101475.31
2023-03-02T05:06:32.320Z,101484.19
2023-03-02T05:09:34.086Z,101475.19
2023-03-02T05:12:54.338Z,101473.59
2023-03-02T05:15:57.516Z,101474.44
2023-03-02T05:19:00.195Z,101466.44
2023-03-02T05:22:02.069Z,101463.00
2023-03-02T05:25:04.570Z,101467.56
2023-03-02T05:28:06.087Z,101462.28
2023-03-02T05:31:08.058Z,101457.00
2023-03-02T05:34:14.212Z,101461.41
2023-03-02T05:37:15.733Z,101457.09
2023-03-02T05:40:19.280Z,101456.25
2023-03-02T05:43:21.770Z,101455.41
2023-03-02T05:46:23.605Z,101456.53
2023-03-02T05:49:25.099Z,101459.22
2023-03-02T05:52:26.659Z,101456.63
2023-03-02T05:55:28.825Z,101465.66
2023-03-02T05:58:30.419Z,101454.81
2023-03-02T06:01:32.176Z,101466.50
2023-03-02T06:04:34.074Z,101478.94
2023-03-02T06:07:35.621Z,101492.34
2023-03-02T06:10:37.145Z,101486.81
2023-03-02T06:13:39.854Z,101495.78
2023-03-02T06:16:41.467Z,101502.22
2023-03-02T06:19:43.120Z,101504.06
2023-03-02T06:22:46.800Z,101499.50
2023-03-02T06:25:48.859Z,101510.09
2023-03-02T06:28:53.155Z,101507.25
2023-03-02T06:31:55.329Z,101514.25
2023-03-02T06:34:57.107Z,101509.69
2023-03-02T06:37:58.811Z,101512.25
2023-03-02T06:41:00.374Z,101505.00
2023-03-02T06:44:02.104Z,101512.13
2023-03-02T06:47:03.630Z,101512.13
2023-03-02T06:50:06.205Z,101514.84
2023-03-02T06:53:07.735Z,101518.56
2023-03-02T06:56:10.063Z,101510.44
2023-03-02T06:59:11.658Z,101522.25
2023-03-02T07:02:13.288Z,101515.13
2023-03-02T07:05:14.878Z,101507.97
2023-03-02T07:08:16.388Z,101507.25
2023-03-02T07:11:17.898Z,101500.09
2023-03-02T07:14:19.381Z,101501.09
2023-03-02T07:17:20.958Z,101491.38
2023-03-02T07:20:22.549Z,101495.94
2023-03-02T07:23:24.090Z,101500.63
2023-03-02T07:26:25.567Z,101488.03
2023-03-02T07:29:27.123Z,101483.63
2023-03-02T07:32:28.735Z,101483.63
2023-03-02T07:35:30.329Z,101493.59
2023-03-02T07:38:31.906Z,101486.44
2023-03-02T07:41:33.786Z,101481.03
2023-03-02T07:44:35.527Z,101481.91
2023-03-02T07:47:37.084Z,101476.63
2023-03-02T07:50:38.651Z,101471.31
2023-03-02T07:53:40.221Z,101472.31
2023-03-02T07:56:41.763Z,101476.03
2023-03-02T07:59:43.678Z,101481.44
2023-03-02T08:02:45.233Z,101479.69
2023-03-02T08:05:46.769Z,101488.69
2023-03-02T08:08:48.629Z,101486.97
2023-03-02T08:11:50.138Z,101488.69
2023-03-02T08:14:51.830Z,101485.13
2023-03-02T08:17:53.376Z,101488.84
2023-03-02T08:20:55.218Z,101487.09
2023-03-02T08:23:57.623Z,101489.81
2023-03-02T08:27:03.118Z,101498.94
2023-03-02T08:30:05.237Z,101484.66
2023-03-02T08:33:07.305Z,101492.78
2023-03-02T08:36:14.803Z,101498.19
2023-03-02T08:39:16.267Z,101499.19
2023-03-02T08:42:18.320Z,101496.50
2023-03-02T08:45:20.795Z,101499.19
2023-03-02T08:48:22.438Z,101493.78
2023-03-02T08:51:25.440Z,101493.63
2023-03-02T08:54:27.129Z,101499.94
2023-03-02T08:57:28.622Z,101496.50
2023-03-02T09:00:31.741Z,101491.91
2023-03-02T09:03:33.258Z,101489.22
2023-03-02T09:06:44.020Z,101481.19
2023-03-02T09:09:45.481Z,101489.34
2023-03-02T09:12:47.025Z,101493.91
2023-03-02T09:15:48.458Z,101493.03
2023-03-02T09:18:50.120Z,101487.50
2023-03-02T09:21:51.579Z,101487.50
2023-03-02T09:24:53.013Z,101493.78
2023-03-02T09:27:54.458Z,101501.06
2023-03-02T09:31:03.433Z,101500.91
2023-03-02T09:34:05.618Z,101501.75
2023-03-02T09:37:07.148Z,101493.63
2023-03-02T09:40:25.188Z,101501.53
2023-03-02T09:43:53.499Z,101495.22
2023-03-02T09:47:34.929Z,101494.09
2023-03-02T09:50:46.437Z,101492.28
2023-03-02T09:54:10.994Z,101488.31
2023-03-02T09:57:26.566Z,101494.47
2023-03-02T10:00:36.126Z,101497.16
2023-03-02T10:03:54.165Z,101501.34
2023-03-02T10:07:01.388Z,101502.06
2023-03-02T10:10:08.956Z,101498.22
2023-03-02T10:13:40.605Z,101493.53
2023-03-02T10:16:49.564Z,101504.88
2023-03-02T10:19:56.614Z,101485.50
2023-03-02T10:23:24.327Z,101484.97
2023-03-02T10:26:35.395Z,101482.13
2023-03-02T10:29:43.112Z,101483.59
2023-03-02T10:32:52.407Z,101476.91
2023-03-02T10:35:54.134Z,101483.06
2023-03-02T10:38:57.628Z,101473.91
2023-03-02T10:42:03.525Z,101475.38
2023-03-02T10:45:23.876Z,101479.69
2023-03-02T10:48:25.367Z,101474.25
2023-03-02T10:51:32.007Z,101478.56
2023-03-02T10:54:34.625Z,101474.16
2023-03-02T10:57:38.702Z,101466.13
2023-03-02T11:00:40.177Z,101465.38
2023-03-02T11:03:41.818Z,101469.84
2023-03-02T11:06:43.352Z,101461.81
2023-03-02T11:10:00.521Z,101460.81
2023-03-02T11:13:06.163Z,101459.13
2023-03-02T11:16:16.800Z,101453.69
2023-03-02T11:19:34.661Z,101452.84
2023-03-02T11:22:53.350Z,101443.69
2023-03-02T11:25:59.899Z,101451.81
2023-03-02T11:29:11.850Z,101450.84
2023-03-02T11:32:34.529Z,101453.69
2023-03-02T11:35:53.046Z,101443.69
2023-03-02T11:38:55.207Z,101442.00
2023-03-02T11:41:56.791Z,101444.56
2023-03-02T11:45:03.729Z,101440.00
2023-03-02T11:48:26.610Z,101428.88
2023-03-02T11:55:24.528Z,101418.31
2023-03-02T11:58:29.652Z,101424.72
2023-03-02T12:01:33.628Z,101417.69
2023-03-02T12:04:38.141Z,101421.25
2023-03-02T12:07:39.673Z,101424.13
2023-03-02T12:10:44.401Z,101440.25
2023-03-02T12:13:57.765Z,101440.97
2023-03-02T12:17:25.425Z,101423.72
2023-03-02T12:20:29.854Z,101419.28
2023-03-02T12:23:34.217Z,101415.72
2023-03-02T12:26:37.586Z,101407.59
2023-03-02T12:29:43.582Z,101404.88
2023-03-02T12:32:58.166Z,101400.31
2023-03-02T12:36:10.098Z,101387.59
2023-03-02T12:39:42.847Z,101386.63
2023-03-02T12:42:49.349Z,101385.75
2023-03-02T12:46:09.730Z,101381.19
2023-03-02T12:49:33.393Z,101385.50
2023-03-02T12:52:36.516Z,101381.91
2023-03-02T12:55:38.580Z,101386.34
2023-03-02T12:58:40.157Z,101377.19
2023-03-02T13:01:41.644Z,101377.06
2023-03-02T13:04:43.225Z,101377.06
2023-03-02T13:07:56.358Z,101374.25
2023-03-02T13:11:01.016Z,101373.34
2023-03-02T13:14:17.448Z,101358.09
2023-03-02T13:17:32.915Z,101356.09
2023-03-02T13:20:34.592Z,101349.81
2023-03-02T13:23:36.217Z,101348.94
2023-03-02T13:26:39.778Z,101345.25
2023-03-02T13:29:41.350Z,101337.13
2023-03-02T13:32:45.682Z,101336.09
2023-03-02T13:35:47.807Z,101327.97
2023-03-02T13:38:52.639Z,101335.25
2023-03-02T13:41:59.399Z,101334.41
2023-03-02T13:45:31.251Z,101332.66
2023-03-02T13:48:33.670Z,101320.25
2023-03-02T13:51:38.190Z,101331.81
2023-03-02T13:54:42.576Z,101332.53
2023-03-02T13:57:45.811Z,101324.13
2023-03-02T14:00:48.381Z,101315.88
2023-03-02T14:03:50.002Z,101310.28
2023-03-02T14:06:54.535Z,101305.47
2023-03-02T14:09:57.602Z,101306.31
2023-03-02T14:13:05.708Z,101303.34
2023-03-02T14:16:10.788Z,101292.38
2023-03-02T14:19:22.282Z,101300.50
2023-03-02T14:22:26.844Z,101293.09
2023-03-02T14:25:28.458Z,101288.66
2023-03-02T14:28:33.006Z,101287.78
2023-03-02T14:31:35.013Z,101279.06
2023-03-02T14:34:37.394Z,101286.22
2023-03-02T14:37:45.437Z,101274.50
2023-03-02T14:40:47.203Z,101276.34
2023-03-02T14:43:49.446Z,101276.34
2023-03-02T14:46:51.310Z,101276.34
2023-03-02T14:49:53.538Z,101277.22
2023-03-02T14:52:57.729Z,101284.34
2023-03-02T14:56:00.502Z,101275.38
2023-03-02T14:59:02.058Z,101277.06
2023-03-02T15:02:12.964Z,101273.50
2023-03-02T15:05:20.676Z,101276.94
2023-03-02T15:08:23.050Z,101275.06
2023-03-02T15:11:26.467Z,101267.78
2023-03-02T15:14:27.935Z,101267.66
2023-03-02T15:17:29.432Z,101273.81
2023-03-02T15:20:31.166Z,101273.66
2023-03-02T15:23:32.922Z,101266.25
2023-03-02T15:26:34.438Z,101265.09
2023-03-02T15:29:35.948Z,101259.84
2023-03-02T15:32:38.107Z,101268.81
2023-03-02T15:35:40.805Z,101264.25
2023-03-02T15:38:42.328Z,101258.81
2023-03-02T15:41:43.870Z,101256.97
2023-03-02T15:44:45.389Z,101261.41
2023-03-02T15:47:47.105Z,101261.25
2023-03-02T15:51:06.531Z,101253.84
2023-03-02T15:54:10.717Z,101262.81
2023-03-02T15:57:12.562Z,101252.13
2023-03-02T16:00:14.447Z,101255.69
2023-03-02T16:03:16.388Z,101261.13
2023-03-02T16:06:18.080Z,101252.25
2023-03-02T16:09:19.562Z,101263.09
2023-03-02T16:12:23.305Z,101264.97
2023-03-02T16:15:24.840Z,101262.25
2023-03-02T16:18:26.308Z,101264.97
2023-03-02T16:21:31.222Z,101258.53
2023-03-02T16:24:32.687Z,101269.56
2023-03-02T16:27:34.206Z,101270.53
2023-03-02T16:30:36.513Z,101263.25
2023-03-02T16:33:39.460Z,101271.25
2023-03-02T16:36:42.112Z,101268.41
2023-03-02T16:39:43.615Z,101274.81
2023-03-02T16:42:45.155Z,101267.41
2023-03-02T16:45:47.518Z,101270.97
2023-03-02T16:48:49.687Z,101278.13
2023-03-02T16:51:56.792Z,101281.53
2023-03-02T16:54:59.251Z,101278.81
2023-03-02T16:58:00.721Z,101278.81
2023-03-02T17:01:02.283Z,101288.97
2023-03-02T17:04:05.950Z,101289.84
2023-03-02T17:07:08.256Z,101299.56
2023-03-02T17:10:14.757Z,101299.56
2023-03-02T17:13:17.071Z,101301.41
2023-03-02T17:16:19.183Z,101306.13
2023-03-02T17:19:20.720Z,101300.69
2023-03-02T17:22:22.228Z,101306.25
2023-03-02T17:25:23.870Z,101316.13
2023-03-02T17:28:25.394Z,101317.09
2023-03-02T17:31:27.080Z,101327.09
2023-03-02T17:34:31.173Z,101324.38
2023-03-02T17:37:33.061Z,101322.53
2023-03-02T17:40:34.628Z,101326.09
2023-03-02T17:43:38.220Z,101326.09
2023-03-02T17:46:43.024Z,101324.25
2023-03-02T17:49:45.173Z,101320.50
2023-03-02T17:52:47.029Z,101325.25
2023-03-02T17:55:48.526Z,101324.97
2023-03-02T17:58:55.725Z,101327.25
2023-03-02T18:01:57.272Z,101326.09
2023-03-02T18:04:59.222Z,101324.97
2023-03-02T18:08:00.752Z,101328.13
2023-03-02T18:11:04.254Z,101333.44
2023-03-02T18:14:05.798Z,101333.44
2023-03-02T18:17:09.221Z,101333.44
2023-03-02T18:20:11.971Z,101335.13
2023-03-02T18:23:13.746Z,101339.63
2023-03-02T18:26:16.100Z,101345.06
2023-03-02T18:29:17.637Z,101341.31
2023-03-02T18:32:19.182Z,101348.50
2023-03-02T18:35:21.279Z,101349.34
2023-03-02T18:38:30.599Z,101347.34
2023-03-02T18:41:32.556Z,101349.19
2023-03-02T18:44:34.714Z,101353.63
2023-03-02T18:47:36.590Z,101343.63
2023-03-02T18:50:39.541Z,101349.06
2023-03-02T18:53:42.928Z,101343.63
2023-03-02T18:56:44.589Z,101356.19
2023-03-02T18:59:46.099Z,101356.19
2023-03-02T19:02:47.966Z,101348.06
2023-03-02T19:05:49.520Z,101349.91
2023-03-02T19:08:51.063Z,101349.91
2023-03-02T19:11:52.536Z,101346.22
2023-03-02T19:14:55.587Z,101347.06
2023-03-02T19:17:57.222Z,101349.50
2023-03-02T19:20:59.112Z,101356.63
2023-03-02T19:24:01.752Z,101355.78
2023-03-02T19:27:03.538Z,101354.09
2023-03-02T19:30:07.192Z,101354.09
2023-03-02T19:33:09.788Z,101345.22
2023-03-02T19:36:12.584Z,101354.09
2023-03-02T19:39:14.426Z,101352.22
2023-03-02T19:42:16.113Z,101349.50
2023-03-02T19:45:31.211Z,101356.50
2023-03-02T19:48:33.949Z,101349.38
2023-03-02T19:51:35.587Z,101354.66
2023-03-02T19:54:37.072Z,101355.38
2023-03-02T19:57:39.950Z,101353.41
2023-03-02T20:00:41.421Z,101350.81
2023-03-02T20:03:44.092Z,101350.69
2023-03-02T20:06:45.776Z,101357.97
2023-03-02T20:09:47.330Z,101366.22
2023-03-02T20:12:48.920Z,101366.34
2023-03-02T20:15:51.138Z,101362.84
2023-03-02T20:18:52.988Z,101362.28
2023-03-02T20:21:54.582Z,101357.28
2023-03-02T20:24:56.318Z,101367.00
2023-03-02T20:27:58.465Z,101363.84
2023-03-02T20:31:03.163Z,101360.00
2023-03-02T20:34:08.970Z,101354.34
2023-03-02T20:37:13.467Z,101354.06
2023-03-02T20:40:17.395Z,101355.66
2023-03-02T20:43:19.377Z,101356.38
2023-03-02T20:46:33.848Z,101362.50
2023-03-02T20:49:37.362Z,101366.09
2023-03-02T20:52:38.885Z,101364.25
2023-03-02T20:55:40.695Z,101371.38
2023-03-02T20:58:43.334Z,101369.38
2023-03-02T21:01:44.886Z,101369.25
2023-03-02T21:04:47.097Z,101376.41
2023-03-02T21:07:49.397Z,101372.69
2023-03-02T21:10:51.155Z,101378.09
2023-03-02T21:13:52.869Z,101373.41
2023-03-02T21:16:54.509Z,101379.84
2023-03-02T21:19:56.426Z,101374.41
2023-03-02T21:22:59.443Z,101382.53
2023-03-02T21:26:01.048Z,101379.69
2023-03-02T21:29:03.748Z,101371.53
2023-03-02T21:32:07.633Z,101370.56
2023-03-02T21:35:09.992Z,101374.97
2023-03-02T21:38:11.654Z,101381.25
2023-03-02T21:41:13.215Z,101366.59
2023-03-02T21:44:14.993Z,101368.34
2023-03-02T21:47:16.478Z,101361.91
2023-03-02T21:50:26.362Z,101360.91
2023-03-02T21:53:27.903Z,101359.19
2023-03-02T21:56:29.387Z,101360.19
2023-03-02T21:59:30.884Z,101360.19
2023-03-02T22:02:33.154Z,101365.75
2023-03-02T22:05:35.356Z,101362.19
2023-03-02T22:08:39.108Z,101363.28
2023-03-02T22:11:40.736Z,101353.56
2023-03-02T22:14:42.348Z,101363.41
2023-03-02T22:17:43.914Z,101360.97
2023-03-02T22:20:48.162Z,101358.25
2023-03-02T22:23:49.965Z,101363.84
2023-03-02T22:27:16.109Z,101368.38
2023-03-02T22:30:23.617Z,101358.66
2023-03-02T22:33:28.152Z,101366.94
2023-03-02T22:36:29.617Z,101366.09
2023-03-02T22:39:33.175Z,101363.38
2023-03-02T22:42:34.649Z,101370.63
2023-03-02T22:45:38.196Z,101375.22
2023-03-02T22:48:41.131Z,101376.22
2023-03-02T22:51:42.702Z,101374.63
2023-03-02T22:54:45.545Z,101382.03
2023-03-02T22:57:47.103Z,101370.34
2023-03-02T23:00:48.897Z,101362.34
2023-03-02T23:03:58.282Z,101353.34
2023-03-02T23:07:02.593Z,101356.91
2023-03-02T23:10:04.461Z,101356.19
2023-03-02T23:13:05.977Z,101358.88
2023-03-02T23:16:14.537Z,101366.06
2023-03-02T23:19:16.071Z,101358.88
2023-03-02T23:22:18.290Z,101358.88
2023-03-02T23:25:19.878Z,101355.31
2023-03-02T23:28:21.362Z,101350.06
2023-03-02T23:31:22.905Z,101346.47
2023-03-02T23:34:24.567Z,101339.34
2023-03-02T23:37:26.088Z,101334.91
2023-03-02T23:40:28.918Z,101330.47
2023-03-02T23:43:30.421Z,101343.28
2023-03-02T23:46:32.306Z,101339.88
2023-03-02T23:49:33.805Z,101335.44
2023-03-02T23:52:35.270Z,101334.59
2023-03-02T23:55:39.460Z,101351.59
2023-03-02T23:58:41.006Z,101356.16
